Time;durP1;ratioP1;P1;durP2;ratioP2;P2;SDS_P1;SDS_P2;PMS_P1;PMS_P2;Temp;Humidity;BMP_temperature;BMP_pressure;BME280_temperature;BME280_humidity;BME280_pressure;Samples;Min_cycle;Max_cycle;Signal;HPM_P1;HPM_P2
2022/04/24 00:01:48;;;;;;;23.63;7.72;;;;;;;9.16;100.00;101468.56;5073271;28;20049;-86
2022/04/24 00:04:15;;;;;;;13.50;6.70;;;;;;;9.19;100.00;101479.81;5074254;28;20070;-86
2022/04/24 00:06:42;;;;;;;22.60;8.30;;;;;;;9.19;100.00;101489.38;5074341;28;20550;-86
2022/04/24 00:09:08;;;;;;;15.27;7.03;;;;;;;8.92;100.00;101428.97;5074246;28;20517;-86
2022/04/24 00:11:35;;;;;;;17.35;6.90;;;;;;;9.20;100.00;101465.00;5070444;28;20053;-85
2022/04/24 00:14:07;;;;;;;20.50;7.60;;;;;;;8.99;100.00;101446.22;5053349;28;20055;-86
2022/04/24 00:16:35;;;;;;;20.60;8.00;;;;;;;9.08;100.00;101460.88;5097945;28;20079;-85
2022/04/24 00:19:02;;;;;;;19.48;7.20;;;;;;;9.15;100.00;101474.66;5073342;28;20052;-84
2022/04/24 00:21:29;;;;;;;23.38;8.77;;;;;;;8.97;100.00;101462.84;5074143;28;20048;-84
2022/04/24 00:23:56;;;;;;;20.65;7.75;;;;;;;9.01;100.00;101460.16;5073621;28;20055;-84
2022/04/24 00:26:23;;;;;;;19.17;9.35;;;;;;;8.97;100.00;101455.00;5074078;28;20136;-85
2022/04/24 00:28:50;;;;;;;19.13;8.27;;;;;;;9.00;100.00;101465.41;5081962;28;20064;-84
2022/04/24 00:31:16;;;;;;;21.80;8.30;;;;;;;8.83;100.00;101436.97;5076614;28;20048;-85
2022/04/24 00:33:43;;;;;;;22.27;7.72;;;;;;;8.85;100.00;101461.31;5074535;28;20052;-85
2022/04/24 00:36:10;;;;;;;22.25;7.82;;;;;;;8.82;100.00;101472.69;5073160;28;20047;-84
2022/04/24 00:38:37;;;;;;;17.73;7.05;;;;;;;8.97;100.00;101481.97;5074096;28;20487;-85
2022/04/24 00:41:04;;;;;;;18.40;7.28;;;;;;;8.79;100.00;101470.13;5072987;28;20506;-86
2022/04/24 00:43:31;;;;;;;19.75;8.43;;;;;;;8.62;100.00;101420.81;5059884;28;20175;-85
2022/04/24 00:46:12;;;;;;;18.10;7.85;;;;;;;8.71;100.00;101453.72;5073511;28;20055;-85
2022/04/24 00:48:43;;;;;;;22.75;7.82;;;;;;;8.60;100.00;101469.59;5074755;28;20052;-85
2022/04/24 00:51:11;;;;;;;17.20;6.80;;;;;;;8.69;100.00;101487.72;5072516;28;20059;-85
2022/04/24 00:53:39;;;;;;;19.83;6.85;;;;;;;8.76;100.00;101485.00;5072828;28;20059;-85
2022/04/24 00:56:06;;;;;;;21.52;7.38;;;;;;;8.60;100.00;101485.25;5072365;28;20480;-85
2022/04/24 00:58:33;;;;;;;23.20;7.70;;;;;;;8.55;100.00;101482.75;5074430;28;20052;-85
2022/04/24 01:01:00;;;;;;;16.55;7.80;;;;;;;8.44;100.00;101471.59;5073605;28;20044;-85
2022/04/24 01:03:28;;;;;;;20.48;7.65;;;;;;;8.50;100.00;101486.31;5073051;28;20049;-85
2022/04/24 01:05:55;;;;;;;25.63;9.25;;;;;;;8.59;100.00;101491.38;5073191;28;20132;-85
2022/04/24 01:08:22;;;;;;;20.80;9.60;;;;;;;8.29;100.00;101467.47;5072893;28;20055;-85
2022/04/24 01:10:49;;;;;;;23.92;10.32;;;;;;;7.89;100.00;101485.47;5072574;28;20048;-85
2022/04/24 01:13:16;;;;;;;29.00;12.27;;;;;;;7.21;100.00;101469.00;5072617;28;20439;-85
2022/04/24 01:15:42;;;;;;;26.92;11.23;;;;;;;7.10;100.00;101490.81;5074017;28;20055;-85
2022/04/24 01:18:10;;;;;;;19.60;8.00;;;;;;;7.57;100.00;101484.19;5072594;28;20056;-85
2022/04/24 01:20:37;;;;;;;21.55;9.48;;;;;;;7.66;100.00;101494.47;5072163;28;20079;-85
2022/04/24 01:23:04;;;;;;;24.58;9.40;;;;;;;7.75;100.00;101468.28;5073433;28;20421;-85
2022/04/24 01:25:31;;;;;;;21.52;8.80;;;;;;;7.82;100.00;101482.09;5073505;28;20055;-85
2022/04/24 01:27:57;;;;;;;17.75;9.07;;;;;;;7.88;100.00;101479.41;5074441;28;20049;-84
2022/04/24 01:30:24;;;;;;;15.32;7.00;;;;;;;8.01;100.00;101497.50;5072887;28;20051;-86
2022/04/24 01:32:51;;;;;;;15.60;7.18;;;;;;;8.18;100.00;101498.97;5073630;28;20383;-84
2022/04/24 01:35:18;;;;;;;19.90;7.60;;;;;;;8.20;100.00;101504.16;5072042;28;20055;-85
2022/04/24 01:37:45;;;;;;;24.98;8.65;;;;;;;8.20;100.00;101513.72;5072030;28;20049;-84
2022/04/24 01:40:11;;;;;;;25.60;9.93;;;;;;;8.41;100.00;101505.56;5071546;28;20052;-85
2022/04/24 01:42:38;;;;;;;17.38;7.05;;;;;;;8.67;100.00;101512.13;5062374;28;20045;-85
2022/04/24 01:45:06;;;;;;;22.23;8.68;;;;;;;8.64;100.00;101517.38;5072035;28;20059;-86
2022/04/24 01:47:32;;;;;;;29.90;12.00;;;;;;;8.18;100.00;101498.97;5072981;28;20052;-85
2022/04/24 01:49:59;;;;;;;25.90;10.32;;;;;;;8.03;100.00;101454.84;5071784;28;20044;-84
2022/04/24 01:52:26;;;;;;;16.15;8.00;;;;;;;8.47;100.00;101489.81;5071761;28;20052;-85
2022/04/24 01:54:53;;;;;;;29.27;12.50;;;;;;;8.08;100.00;101502.59;5071688;28;20454;-85
2022/04/24 01:57:19;;;;;;;25.75;11.85;;;;;;;8.02;100.00;101474.00;5072794;28;20600;-85
2022/04/24 01:59:46;;;;;;;34.03;13.82;;;;;;;8.05;100.00;101504.38;5072171;28;20048;-85
2022/04/24 02:02:13;;;;;;;23.42;11.07;;;;;;;7.94;100.00;101513.22;5072042;28;20051;-85
2022/04/24 02:04:40;;;;;;;22.38;10.60;;;;;;;8.03;100.00;101521.81;5068967;28;20135;-85
2022/04/24 02:07:07;;;;;;;40.22;13.82;;;;;;;7.98;100.00;101499.28;5056232;28;20054;-85
2022/04/24 02:09:35;;;;;;;38.80;14.30;;;;;;;7.78;100.00;101499.53;5056068;28;20414;-85
2022/04/24 02:12:02;;;;;;;28.90;11.57;;;;;;;8.16;100.00;101520.72;5072563;28;20053;-85
2022/04/24 02:14:29;;;;;;;30.00;13.52;;;;;;;7.68;100.00;101502.28;5071485;28;20482;-85
2022/04/24 02:16:56;;;;;;;28.05;13.15;;;;;;;7.87;100.00;101495.94;5071966;28;20623;-85
2022/04/24 02:19:22;;;;;;;23.13;10.95;;;;;;;8.20;100.00;101530.25;5070726;28;20715;-85
2022/04/24 02:21:49;;;;;;;22.27;9.45;;;;;;;8.16;100.00;101485.09;5071097;28;20052;-85
2022/04/24 02:24:16;;;;;;;20.10;8.63;;;;;;;8.25;100.00;101491.91;5071629;28;20049;-85
2022/04/24 02:26:43;;;;;;;24.10;9.52;;;;;;;8.42;100.00;101507.31;5072598;28;20052;-85
2022/04/24 02:29:10;;;;;;;29.77;12.85;;;;;;;8.41;100.00;101528.16;5070819;28;20056;-85
2022/04/24 02:31:36;;;;;;;28.65;11.57;;;;;;;8.48;100.00;101520.28;5070235;28;20048;-85
2022/04/24 02:34:03;;;;;;;19.95;8.48;;;;;;;8.70;100.00;101525.97;5071434;28;20079;-85
2022/04/24 02:36:30;;;;;;;29.90;12.35;;;;;;;8.53;100.00;101526.28;5070760;28;20051;-85
2022/04/24 02:38:57;;;;;;;27.08;13.27;;;;;;;8.52;100.00;101516.72;5072492;28;20059;-86
2022/04/24 02:41:27;;;;;;;24.85;10.20;;;;;;;8.50;100.00;101512.41;5070427;28;20094;-85
2022/04/24 02:43:53;;;;;;;24.20;10.82;;;;;;;8.51;100.00;101501.94;5071431;28;20048;-85
2022/04/24 02:46:20;;;;;;;32.53;10.63;;;;;;;8.74;100.00;101496.31;5071213;28;20045;-85
2022/04/24 02:48:47;;;;;;;23.15;10.20;;;;;;;8.88;100.00;101484.75;5072258;28;20052;-85
2022/04/24 02:51:14;;;;;;;26.90;11.27;;;;;;;8.85;100.00;101485.69;5070417;28;20544;-85
2022/04/24 02:53:41;;;;;;;28.98;10.43;;;;;;;8.61;100.00;101478.31;5069676;28;20054;-85
2022/04/24 02:56:08;;;;;;;30.27;14.18;;;;;;;8.36;100.00;101487.38;5071415;28;20045;-85
2022/04/24 02:58:34;;;;;;;32.10;9.50;;;;;;;8.56;100.00;101494.03;5071793;28;20048;-85
2022/04/24 03:01:01;;;;;;;29.10;8.38;;;;;;;8.77;100.00;101497.16;5070409;28;20050;-85
2022/04/24 03:03:28;;;;;;;24.70;12.15;;;;;;;8.51;100.00;101461.94;5071401;28;20059;-85
2022/04/24 03:05:55;;;;;;;21.40;10.82;;;;;;;8.59;100.00;101470.50;5070620;28;20056;-85
2022/04/24 03:08:22;;;;;;;27.77;11.10;;;;;;;8.70;100.00;101478.97;5072369;28;20426;-85
2022/04/24 03:10:49;;;;;;;32.38;9.82;;;;;;;8.66;100.00;101474.72;5069801;28;20490;-85
2022/04/24 03:13:15;;;;;;;33.20;11.63;;;;;;;8.66;100.00;101466.88;5071016;28;20052;-85
2022/04/24 03:15:42;;;;;;;29.27;12.52;;;;;;;8.42;100.00;101483.81;5069379;28;20045;-85
2022/04/24 03:18:09;;;;;;;28.83;12.27;;;;;;;8.56;100.00;101496.63;5070254;28;20045;-84
2022/04/24 03:20:36;;;;;;;33.55;12.30;;;;;;;8.35;100.00;101484.78;5070208;28;20048;-84
2022/04/24 03:23:02;;;;;;;25.30;8.93;;;;;;;8.62;100.00;101485.22;5071836;28;20062;-85
2022/04/24 03:25:29;;;;;;;25.15;10.20;;;;;;;8.63;100.00;101508.69;5071618;28;20091;-85
2022/04/24 03:27:56;;;;;;;30.23;13.00;;;;;;;8.69;100.00;101518.16;5070555;28;20040;-86
2022/04/24 03:30:23;;;;;;;28.00;11.48;;;;;;;8.47;100.00;101500.25;5068531;28;20505;-84
2022/04/24 03:32:50;;;;;;;25.85;9.43;;;;;;;8.74;100.00;101498.91;5049433;28;20075;-85
2022/04/24 03:35:16;;;;;;;27.25;12.05;;;;;;;8.56;100.00;101470.53;5056923;28;20045;-85
2022/04/24 03:37:43;;;;;;;28.48;12.50;;;;;;;8.86;100.00;101516.13;5070157;28;20814;-85
2022/04/24 03:40:10;;;;;;;29.48;11.18;;;;;;;8.77;100.00;101497.16;5071119;28;20482;-85
2022/04/24 03:42:37;;;;;;;21.92;10.98;;;;;;;8.70;100.00;101491.19;5060339;28;20060;-85
2022/04/24 03:45:08;;;;;;;29.30;12.05;;;;;;;8.43;100.00;101482.94;5051222;28;20052;-83
2022/04/24 03:47:35;;;;;;;32.97;11.60;;;;;;;8.50;100.00;101481.94;5051313;28;20127;-83
2022/04/24 03:50:02;;;;;;;28.10;12.00;;;;;;;8.50;100.00;101500.22;5060356;28;20066;-82
2022/04/24 03:52:29;;;;;;;34.03;13.43;;;;;;;8.50;100.00;101479.34;5072554;28;20052;-82
2022/04/24 03:54:56;;;;;;;22.48;10.38;;;;;;;8.77;100.00;101491.94;5071240;28;20045;-82
2022/04/24 03:57:23;;;;;;;30.15;13.02;;;;;;;8.88;100.00;101516.09;5072188;28;20048;-83
2022/04/24 03:59:50;;;;;;;42.65;15.27;;;;;;;8.83;100.00;101497.91;5070073;28;20405;-84
2022/04/24 04:02:17;;;;;;;20.42;9.10;;;;;;;8.58;100.00;101476.59;5072131;28;20044;-83
2022/04/24 04:04:44;;;;;;;25.85;12.45;;;;;;;8.57;100.00;101458.34;5071485;28;20052;-85
2022/04/24 04:07:11;;;;;;;30.67;12.20;;;;;;;8.62;100.00;101457.34;5070605;28;20052;-85
2022/04/24 04:09:38;;;;;;;32.05;13.05;;;;;;;8.88;100.00;101485.63;5069356;28;20054;-85
2022/04/24 04:12:06;;;;;;;29.67;11.15;;;;;;;8.69;100.00;101442.47;5071387;28;20058;-85
2022/04/24 04:14:33;;;;;;;25.10;10.90;;;;;;;9.04;100.00;101478.34;5071919;28;20054;-85
2022/04/24 04:17:00;;;;;;;28.55;12.15;;;;;;;8.77;100.00;101461.47;5070510;28;20059;-85
2022/04/24 04:19:31;;;;;;;28.88;10.27;;;;;;;9.04;100.00;101501.00;5070433;28;20057;-85
2022/04/24 04:25:10;;;;;;;24.92;9.93;;;;;;;9.09;100.00;101466.06;5066572;28;20063;-86
2022/04/24 04:27:37;;;;;;;28.60;9.48;;;;;;;9.22;100.00;101484.97;5056274;28;20055;-84
2022/04/24 04:30:04;;;;;;;22.38;10.43;;;;;;;9.24;100.00;101488.44;5089832;28;20051;-84
2022/04/24 04:32:31;;;;;;;31.50;11.90;;;;;;;9.23;100.00;101491.06;5068955;28;20056;-84
2022/04/24 04:34:57;;;;;;;27.38;11.07;;;;;;;9.18;100.00;101498.13;5070736;28;20049;-85
2022/04/24 04:37:24;;;;;;;27.90;10.35;;;;;;;8.95;100.00;101475.06;5068180;28;20048;-85
2022/04/24 04:39:51;;;;;;;23.90;9.85;;;;;;;8.89;100.00;101473.44;5073153;28;20474;-84
2022/04/24 04:42:18;;;;;;;32.13;12.18;;;;;;;8.98;100.00;101503.72;5065368;28;20399;-84
2022/04/24 04:44:45;;;;;;;32.33;10.77;;;;;;;9.02;100.00;101459.25;5061743;28;20048;-84
2022/04/24 04:47:11;;;;;;;27.00;10.90;;;;;;;8.60;100.00;101442.63;5073202;28;20048;-84
2022/04/24 04:49:38;;;;;;;29.45;11.32;;;;;;;8.72;100.00;101476.34;5063989;28;20045;-84
2022/04/24 04:52:05;;;;;;;30.08;13.02;;;;;;;8.91;100.00;101484.72;5077138;28;20044;-85
2022/04/24 04:54:32;;;;;;;25.27;10.25;;;;;;;9.01;100.00;101488.88;5093845;28;20152;-84
2022/04/24 04:56:58;;;;;;;34.50;12.52;;;;;;;9.27;100.00;101509.25;5071099;28;20052;-84
2022/04/24 04:59:25;;;;;;;29.60;11.55;;;;;;;8.86;100.00;101463.03;5053768;28;20049;-85
2022/04/24 05:01:52;;;;;;;22.45;10.27;;;;;;;9.12;100.00;101478.22;5072339;28;20048;-85
2022/04/24 05:04:19;;;;;;;38.03;13.23;;;;;;;8.87;100.00;101486.53;5074278;28;20730;-84
2022/04/24 05:06:45;;;;;;;27.85;12.23;;;;;;;9.31;100.00;101489.16;5073421;28;20040;-85
2022/04/24 05:09:12;;;;;;;22.13;9.98;;;;;;;9.27;100.00;101448.28;5072754;28;20055;-85
2022/04/24 05:11:39;;;;;;;24.50;8.35;;;;;;;9.80;100.00;101510.78;5069837;28;20052;-84
2022/04/24 05:14:06;;;;;;;29.15;13.52;;;;;;;9.24;100.00;101501.50;5053980;28;20048;-85
2022/04/24 05:16:33;;;;;;;28.05;10.82;;;;;;;9.14;100.00;101473.81;5089393;28;20052;-84
2022/04/24 05:19:00;;;;;;;29.98;10.90;;;;;;;8.76;100.00;101469.31;5064773;28;20059;-84
2022/04/24 05:21:26;;;;;;;28.88;11.63;;;;;;;8.91;100.00;101482.97;5066706;28;20050;-85
2022/04/24 05:23:53;;;;;;;18.52;7.97;;;;;;;9.01;100.00;101462.75;5060153;28;20132;-85
2022/04/24 05:26:20;;;;;;;22.40;9.63;;;;;;;9.40;100.00;101498.56;5072756;28;20055;-84
2022/04/24 05:28:47;;;;;;;22.50;10.88;;;;;;;9.38;100.00;101508.19;5072027;28;20135;-85
2022/04/24 05:31:14;;;;;;;20.58;10.60;;;;;;;9.33;100.00;101497.84;5070091;28;20054;-85
2022/04/24 05:33:41;;;;;;;28.38;11.45;;;;;;;9.08;100.00;101500.94;5056583;28;20059;-84
2022/04/24 05:36:08;;;;;;;27.50;12.95;;;;;;;9.15;100.00;101492.97;5073607;28;20048;-85
2022/04/24 05:38:35;;;;;;;29.48;12.77;;;;;;;8.93;100.00;101503.81;5071037;28;20774;-85
2022/04/24 05:41:02;;;;;;;26.35;12.52;;;;;;;8.89;100.00;101516.06;5072819;28;20048;-85
2022/04/24 05:43:30;;;;;;;25.33;12.75;;;;;;;9.03;100.00;101510.59;5062728;28;20045;-85
2022/04/24 05:45:59;;;;;;;25.73;10.20;;;;;;;8.90;100.00;101519.53;5069640;28;20052;-84
2022/04/24 05:48:26;;;;;;;25.73;12.45;;;;;;;9.06;100.00;101536.66;5063464;28;20047;-84
2022/04/24 05:50:53;;;;;;;31.95;10.88;;;;;;;9.03;100.00;101525.41;5059229;28;20046;-84
2022/04/24 05:53:19;;;;;;;27.52;11.55;;;;;;;9.11;100.00;101536.56;5096429;28;20550;-85
2022/04/24 05:55:46;;;;;;;23.85;9.68;;;;;;;9.40;100.00;101528.19;5089528;28;20766;-84
2022/04/24 05:58:13;;;;;;;25.33;12.98;;;;;;;9.42;100.00;101543.81;5060314;28;20051;-85
2022/04/24 06:00:40;;;;;;;20.95;9.10;;;;;;;9.39;100.00;101504.69;5059722;28;20061;-85
2022/04/24 06:03:07;;;;;;;17.65;7.65;;;;;;;9.79;100.00;101529.97;5062062;28;20052;-85
2022/04/24 06:05:35;;;;;;;22.10;9.38;;;;;;;9.42;100.00;101486.31;5059977;28;20124;-86
2022/04/24 06:08:01;;;;;;;26.20;9.52;;;;;;;9.12;100.00;101460.78;5058409;28;20138;-85
2022/04/24 06:10:28;;;;;;;21.70;9.68;;;;;;;9.45;100.00;101479.25;5066350;28;20044;-85
2022/04/24 06:12:56;;;;;;;25.08;11.35;;;;;;;9.35;100.00;101508.22;5064355;28;20054;-85
2022/04/24 06:15:25;;;;;;;22.52;10.77;;;;;;;9.50;100.00;101521.84;5057747;28;20064;-84
2022/04/24 06:17:57;;;;;;;20.40;9.48;;;;;;;9.76;100.00;101522.22;5093068;28;20058;-85
2022/04/24 06:20:28;;;;;;;20.60;8.38;;;;;;;9.40;100.00;101481.13;5062783;28;20484;-83
2022/04/24 06:22:56;;;;;;;19.58;10.23;;;;;;;9.29;100.00;101486.56;5060358;28;20580;-84
2022/04/24 06:25:34;;;;;;;16.05;7.55;;;;;;;9.26;100.00;101468.34;5064040;28;20463;-84
2022/04/24 06:28:02;;;;;;;18.98;9.23;;;;;;;9.32;100.00;101517.88;5065512;28;20132;-84
2022/04/24 06:30:30;;;;;;;21.45;9.55;;;;;;;9.46;100.00;101499.28;5063428;28;20713;-84
2022/04/24 06:32:58;;;;;;;21.60;10.13;;;;;;;9.52;100.00;101513.97;5061779;28;20055;-84
2022/04/24 06:35:25;;;;;;;20.80;9.73;;;;;;;9.47;100.00;101513.22;5066278;28;20053;-84
2022/04/24 06:37:53;;;;;;;21.15;9.32;;;;;;;9.69;100.00;101509.25;5067025;28;20047;-84
2022/04/24 06:40:23;;;;;;;19.80;9.65;;;;;;;9.44;100.00;101479.31;5071641;28;20059;-83
2022/04/24 06:42:56;;;;;;;19.23;9.45;;;;;;;9.79;100.00;101498.59;5071955;28;20135;-84
2022/04/24 06:45:26;;;;;;;27.23;11.85;;;;;;;9.54;100.00;101438.16;5068692;28;20131;-83
2022/04/24 06:48:04;;;;;;;28.20;12.90;;;;;;;9.50;100.00;101477.41;5051710;28;20095;-84
2022/04/24 06:50:32;;;;;;;24.85;12.20;;;;;;;9.54;100.00;101506.13;5061953;28;20483;-84
2022/04/24 06:53:09;;;;;;;26.48;12.55;;;;;;;9.69;100.00;101500.56;5055885;28;20061;-86
2022/04/24 06:55:39;;;;;;;27.20;12.05;;;;;;;9.63;100.00;101498.94;5070763;28;20059;-87
2022/04/24 06:58:08;;;;;;;26.83;12.48;;;;;;;9.56;100.00;101493.88;5070250;28;20120;-86
2022/04/24 07:00:36;;;;;;;29.42;14.63;;;;;;;9.45;100.00;101478.41;5069763;28;20463;-86
2022/04/24 07:03:26;;;;;;;22.85;9.98;;;;;;;9.79;100.00;101480.28;5070841;28;20064;-85
2022/04/24 07:05:54;;;;;;;27.45;10.00;;;;;;;9.80;100.00;101485.50;5071234;28;20533;-85
2022/04/24 07:08:22;;;;;;;26.75;11.85;;;;;;;9.61;100.00;101442.34;5070786;28;20037;-85
2022/04/24 07:10:49;;;;;;;24.42;11.57;;;;;;;9.85;100.00;101478.41;5070086;28;20071;-84
2022/04/24 07:13:16;;;;;;;31.13;13.35;;;;;;;9.28;100.00;101476.16;5071777;28;20402;-84
2022/04/24 07:15:42;;;;;;;20.88;11.48;;;;;;;9.71;100.00;101469.16;5069623;28;20380;-84
2022/04/24 07:18:10;;;;;;;30.77;11.80;;;;;;;9.79;100.00;101481.16;5071397;28;20048;-84
2022/04/24 07:20:37;;;;;;;24.65;10.75;;;;;;;9.88;100.00;101498.41;5069387;28;20052;-85
2022/04/24 07:23:07;;;;;;;24.58;11.75;;;;;;;9.69;100.00;101488.34;5051286;28;20041;-84
2022/04/24 07:25:40;;;;;;;25.40;11.43;;;;;;;9.62;100.00;101478.91;5071592;28;20052;-85
2022/04/24 07:28:08;;;;;;;23.90;10.48;;;;;;;10.12;100.00;101496.97;5069852;28;20044;-84
2022/04/24 07:30:35;;;;;;;29.75;12.00;;;;;;;9.64;100.00;101484.97;5061758;28;20050;-85
2022/04/24 07:33:02;;;;;;;23.90;11.23;;;;;;;9.69;100.00;101483.13;5062133;28;20055;-85
2022/04/24 07:35:31;;;;;;;29.42;12.55;;;;;;;9.92;100.00;101489.59;5070521;28;20052;-85
2022/04/24 07:37:58;;;;;;;28.77;12.27;;;;;;;10.11;100.00;101470.84;5068313;28;20094;-83
2022/04/24 07:40:27;;;;;;;27.65;11.95;;;;;;;9.92;100.00;101473.03;5068751;28;20049;-83
2022/04/24 07:43:04;;;;;;;24.65;10.27;;;;;;;10.11;100.00;101471.72;5069924;28;20634;-84
2022/04/24 07:45:37;;;;;;;26.27;11.90;;;;;;;10.11;100.00;101490.03;5070455;28;20048;-84
2022/04/24 07:48:07;;;;;;;27.13;12.05;;;;;;;10.08;100.00;101485.72;5068334;28;20142;-84
2022/04/24 07:50:45;;;;;;;24.20;10.52;;;;;;;10.29;100.00;101493.97;5067417;28;20044;-84
2022/04/24 07:53:13;;;;;;;24.50;10.60;;;;;;;10.25;100.00;101494.91;5070121;28;20049;-84
2022/04/24 07:55:41;;;;;;;28.52;11.88;;;;;;;9.90;100.00;101499.25;5071496;28;20055;-84
2022/04/24 07:58:08;;;;;;;29.23;13.50;;;;;;;9.74;100.00;101471.69;5056361;28;20053;-84
2022/04/24 08:00:35;;;;;;;28.63;12.52;;;;;;;9.86;100.00;101484.47;5061138;28;20048;-84
2022/04/24 08:03:10;;;;;;;22.90;9.90;;;;;;;10.03;100.00;101510.28;5075397;28;20059;-85
2022/04/24 08:05:49;;;;;;;29.52;11.40;;;;;;;9.84;100.00;101486.28;5073913;28;20467;-86
2022/04/24 08:08:18;;;;;;;19.73;9.23;;;;;;;10.27;100.00;101503.63;5057881;28;20127;-86
2022/04/24 08:10:50;;;;;;;28.98;13.07;;;;;;;9.88;100.00;101499.25;5073415;28;20049;-86
2022/04/24 08:13:17;;;;;;;24.17;11.07;;;;;;;10.33;100.00;101498.25;5082005;28;20051;-86
2022/04/24 08:15:44;;;;;;;30.08;11.90;;;;;;;10.04;100.00;101470.16;5081032;28;20195;-85
2022/04/24 08:18:12;;;;;;;21.70;9.32;;;;;;;10.16;100.00;101496.00;5055406;28;20110;-85
2022/04/24 08:20:40;;;;;;;25.40;11.75;;;;;;;9.69;100.00;101471.81;5071875;28;20048;-85
2022/04/24 08:23:09;;;;;;;29.48;11.50;;;;;;;9.56;100.00;101489.53;5061264;28;20076;-85
2022/04/24 08:25:37;;;;;;;19.13;9.70;;;;;;;9.75;100.00;101476.03;5090289;28;20045;-85
2022/04/24 08:28:06;;;;;;;27.70;10.20;;;;;;;9.83;100.00;101498.50;5067949;28;20048;-85
2022/04/24 08:30:36;;;;;;;25.10;11.43;;;;;;;9.85;100.00;101498.47;5073666;28;20078;-85
2022/04/24 08:33:03;;;;;;;28.40;9.48;;;;;;;9.91;100.00;101490.47;5071277;28;20048;-85
2022/04/24 08:35:30;;;;;;;19.42;8.18;;;;;;;10.03;100.00;101500.66;5073176;28;20052;-85
2022/04/24 08:37:57;;;;;;;27.83;10.68;;;;;;;10.00;100.00;101465.84;5072160;28;20851;-85
2022/04/24 08:40:25;;;;;;;22.40;9.43;;;;;;;10.17;100.00;101502.09;5069791;28;20050;-85
2022/04/24 08:42:54;;;;;;;26.92;9.05;;;;;;;10.20;100.00;101502.03;5064979;28;20056;-85
2022/04/24 08:45:26;;;;;;;26.77;7.90;;;;;;;9.91;100.00;101474.78;5058334;28;20052;-84
2022/04/24 08:47:54;;;;;;;21.08;7.10;;;;;;;9.85;100.00;101473.16;5073248;28;20080;-85
2022/04/24 08:50:21;;;;;;;18.25;6.88;;;;;;;9.58;100.00;101438.06;5070128;28;20053;-85
2022/04/24 08:52:49;;;;;;;19.17;8.32;;;;;;;9.91;100.00;101490.47;5068970;28;20059;-85
2022/04/24 08:55:16;;;;;;;18.88;8.10;;;;;;;9.90;100.00;101491.38;5071379;28;20159;-85
2022/04/24 08:57:43;;;;;;;24.55;8.13;;;;;;;9.86;100.00;101474.03;5072822;28;20048;-85
2022/04/24 09:00:11;;;;;;;24.33;8.32;;;;;;;9.88;100.00;101469.63;5067421;28;20132;-84
2022/04/24 09:02:54;;;;;;;22.55;6.90;;;;;;;9.74;100.00;101498.72;5067083;28;20123;-85
2022/04/24 09:05:21;;;;;;;22.45;7.63;;;;;;;9.84;100.00;101499.34;5067000;28;20479;-85
2022/04/24 09:07:52;;;;;;;26.42;8.18;;;;;;;9.65;100.00;101468.41;5072625;28;20059;-85
2022/04/24 09:10:53;;;;;;;19.75;8.30;;;;;;;9.53;100.00;101475.66;5067987;28;20044;-85
2022/04/24 09:13:28;;;;;;;19.60;7.05;;;;;;;9.93;100.00;101514.00;5060660;28;20063;-84
2022/04/24 09:16:00;;;;;;;16.30;6.03;;;;;;;9.68;100.00;101506.69;5061953;28;20054;-85
2022/04/24 09:18:40;;;;;;;27.65;8.45;;;;;;;9.83;100.00;101501.13;5072264;28;20040;-85
2022/04/24 09:21:11;;;;;;;17.73;7.00;;;;;;;9.75;100.00;101500.41;5072292;28;20048;-84
2022/04/24 09:23:40;;;;;;;18.10;6.28;;;;;;;9.96;100.00;101493.00;5072580;28;20086;-85
2022/04/24 09:26:16;;;;;;;16.35;6.07;;;;;;;10.15;100.00;101506.53;5073015;28;20661;-85
2022/04/24 09:28:44;;;;;;;19.75;7.45;;;;;;;9.69;100.00;101490.09;5072737;28;20546;-85
2022/04/24 09:31:10;;;;;;;15.38;7.57;;;;;;;9.64;100.00;101494.56;5071878;28;20140;-85
2022/04/24 09:33:39;;;;;;;23.42;7.38;;;;;;;9.32;100.00;101502.19;5071180;28;20056;-85
2022/04/24 09:36:07;;;;;;;20.05;7.28;;;;;;;9.52;100.00;101505.28;5058889;28;20063;-85
2022/04/24 09:38:42;;;;;;;17.70;7.90;;;;;;;9.42;100.00;101500.25;5065379;28;20490;-85
2022/04/24 09:41:21;;;;;;;20.55;6.85;;;;;;;9.59;100.00;101517.34;5068585;28;20056;-85
2022/04/24 09:43:49;;;;;;;14.68;6.63;;;;;;;9.69;100.00;101506.66;5085710;28;20060;-85
2022/04/24 09:46:29;;;;;;;18.25;6.75;;;;;;;9.67;100.00;101524.13;5059650;28;20044;-85
2022/04/24 09:49:00;;;;;;;15.95;6.80;;;;;;;9.69;100.00;101524.94;5072721;28;20059;-85
2022/04/24 09:51:27;;;;;;;20.80;6.40;;;;;;;9.64;100.00;101520.72;5071212;28;20059;-86
2022/04/24 09:54:02;;;;;;;14.52;6.28;;;;;;;9.44;100.00;101485.41;5072263;28;20440;-86
2022/04/24 09:56:29;;;;;;;15.82;6.50;;;;;;;9.61;100.00;101529.47;5072035;28;20048;-86
2022/04/24 09:58:57;;;;;;;15.38;6.10;;;;;;;9.81;100.00;101523.84;5071728;28;20045;-86
2022/04/24 10:01:25;;;;;;;19.80;6.40;;;;;;;9.98;100.00;101519.97;5066484;28;20052;-86
2022/04/24 10:03:54;;;;;;;20.30;6.78;;;;;;;9.92;100.00;101525.38;5066496;28;20549;-86
2022/04/24 10:06:23;;;;;;;21.88;6.57;;;;;;;9.82;100.00;101520.31;5058039;28;20136;-86
2022/04/24 10:08:51;;;;;;;18.60;7.03;;;;;;;9.77;100.00;101530.00;5064286;28;20045;-86
2022/04/24 10:11:18;;;;;;;17.88;5.70;;;;;;;9.74;100.00;101532.72;5064353;28;20057;-86
2022/04/24 10:13:48;;;;;;;23.42;7.13;;;;;;;9.67;100.00;101525.91;5061127;28;20068;-89
2022/04/24 10:16:21;;;;;;;26.20;7.63;;;;;;;9.67;100.00;101531.13;5064852;28;20044;-88
2022/04/24 10:19:20;;;;;;;21.15;6.22;;;;;;;9.49;100.00;101527.09;5065331;28;20486;-86
2022/04/24 10:22:18;;;;;;;17.17;6.30;;;;;;;9.34;100.00;101538.75;5054548;28;20438;-83
2022/04/24 10:24:45;;;;;;;16.90;5.53;;;;;;;9.76;100.00;101514.38;5063749;28;20059;-83
2022/04/24 10:27:12;;;;;;;19.40;6.20;;;;;;;9.91;100.00;101527.09;5056790;28;20620;-85
2022/04/24 10:29:53;;;;;;;27.02;7.70;;;;;;;9.88;100.00;101540.28;5060801;28;20131;-85
2022/04/24 10:32:33;;;;;;;17.00;5.05;;;;;;;9.85;100.00;101528.09;5059036;28;20047;-84
2022/04/24 10:35:00;;;;;;;19.77;5.28;;;;;;;9.75;100.00;101536.19;5068325;28;20054;-83
2022/04/24 10:37:33;;;;;;;19.08;6.32;;;;;;;9.71;100.00;101526.69;5051254;28;20056;-85
2022/04/24 10:40:01;;;;;;;15.93;4.25;;;;;;;9.36;100.00;101513.44;5063039;28;20032;-84
2022/04/24 10:42:30;;;;;;;18.75;5.90;;;;;;;9.47;100.00;101487.06;5071553;28;20044;-84
2022/04/24 10:45:12;;;;;;;17.05;4.55;;;;;;;10.21;100.00;101509.84;5071178;28;20049;-84
2022/04/24 10:47:48;;;;;;;15.00;4.15;;;;;;;10.14;100.00;101529.19;5063668;28;20131;-85
2022/04/24 10:50:18;;;;;;;20.98;6.05;;;;;;;9.91;100.00;101540.19;5064954;28;20044;-84
2022/04/24 10:52:47;;;;;;;18.50;4.80;;;;;;;10.18;100.00;101524.75;5053835;28;20049;-84
2022/04/24 10:55:21;;;;;;;17.30;4.55;;;;;;;9.70;100.00;101523.19;5090915;28;20056;-84
2022/04/24 10:57:54;;;;;;;15.98;4.70;;;;;;;9.85;100.00;101501.09;5068750;28;20049;-84
2022/04/24 11:00:28;;;;;;;17.58;4.85;;;;;;;10.41;100.00;101503.28;5070449;28;20143;-84
2022/04/24 11:03:11;;;;;;;16.25;4.63;;;;;;;10.07;100.00;101538.97;5062320;28;20135;-84
2022/04/24 11:05:44;;;;;;;13.27;3.83;;;;;;;9.91;100.00;101500.09;5059803;28;20049;-84
2022/04/24 11:08:18;;;;;;;18.70;4.88;;;;;;;10.08;100.00;101531.97;5063721;28;20045;-84
2022/04/24 11:10:47;;;;;;;20.57;5.13;;;;;;;9.21;100.00;101478.03;5070678;28;20051;-85
2022/04/24 11:13:17;;;;;;;17.52;4.68;;;;;;;10.13;100.00;101527.50;5089908;28;20151;-85
2022/04/24 11:15:47;;;;;;;13.90;4.20;;;;;;;10.22;100.00;101514.19;5074170;28;20048;-84
2022/04/24 11:18:26;;;;;;;13.45;3.90;;;;;;;10.44;100.00;101490.13;5065728;28;20045;-84
2022/04/24 11:21:03;;;;;;;23.23;5.70;;;;;;;9.76;100.00;101511.75;5061537;28;20135;-85
2022/04/24 11:23:40;;;;;;;17.67;4.45;;;;;;;10.15;100.00;101502.13;5096870;28;20084;-85